sensor_id;sensor_type;location;lat;lon;timestamp;noise_LAeq;noise_LA_min;noise_LA_max;noise_LA01;noise_LA95
67298;Laerm;65443;51.436;5.978;2023-06-19T00:00:02;44.56;34.04;54.49;;
67298;Laerm;65443;51.436;5.978;2023-06-19T00:00:17;58.56;31.06;71.25;;
67298;Laerm;65443;51.436;5.978;2023-06-19T00:00:27;31.73;30.07;33.85;;
67298;Laerm;65443;51.436;5.978;2023-06-19T00:00:40;31.34;30.01;32.42;;
67298;Laerm;65443;51.436;5.978;2023-06-19T00:00:50;31.15;30.07;32.60;;
67298;Laerm;65443;51.436;5.978;2023-06-19T00:01:00;31.17;29.80;32.13;;
67298;Laerm;65443;51.436;5.978;2023-06-19T00:01:11;31.08;29.86;32.25;;
67298;Laerm;65443;51.436;5.978;2023-06-19T00:01:21;31.17;30.06;32.59;;
67298;Laerm;65443;51.436;5.978;2023-06-19T00:01:31;31.41;29.98;32.54;;
67298;Laerm;65443;51.436;5.978;2023-06-19T00:01:42;31.59;30.49;33.05;;
67298;Laerm;65443;51.436;5.978;2023-06-19T00:01:52;31.91;30.66;33.34;;
67298;Laerm;65443;51.436;5.978;2023-06-19T00:02:03;31.30;29.71;35.46;;
67298;Laerm;65443;51.436;5.978;2023-06-19T00:02:13;31.14;29.88;35.48;;
67298;Laerm;65443;51.436;5.978;2023-06-19T00:02:23;31.02;29.96;32.26;;
67298;Laerm;65443;51.436;5.978;2023-06-19T00:02:33;31.49;30.13;32.55;;
67298;Laerm;65443;51.436;5.978;2023-06-19T00:02:44;31.40;29.89;32.70;;
67298;Laerm;65443;51.436;5.978;2023-06-19T00:02:54;31.24;29.97;32.21;;
67298;Laerm;65443;51.436;5.978;2023-06-19T00:03:05;31.46;30.16;39.15;;
67298;Laerm;65443;51.436;5.978;2023-06-19T00:03:15;32.76;30.52;48.21;;
67298;Laerm;65443;51.436;5.978;2023-06-19T00:03:25;33.10;30.09;40.38;;
67298;Laerm;65443;51.436;5.978;2023-06-19T00:03:36;32.31;29.95;41.16;;
67298;Laerm;65443;51.436;5.978;2023-06-19T00:03:46;32.15;30.28;37.10;;
67298;Laerm;65443;51.436;5.978;2023-06-19T00:03:56;31.90;30.40;35.34;;
67298;Laerm;65443;51.436;5.978;2023-06-19T00:04:07;32.70;30.29;38.07;;
67298;Laerm;65443;51.436;5.978;2023-06-19T00:04:17;35.17;30.05;50.52;;
67298;Laerm;65443;51.436;5.978;2023-06-19T00:04:27;32.79;30.45;43.75;;
67298;Laerm;65443;51.436;5.978;2023-06-19T00:04:38;31.41;30.26;33.32;;
67298;Laerm;65443;51.436;5.978;2023-06-19T00:04:48;31.59;30.27;35.65;;
67298;Laerm;65443;51.436;5.978;2023-06-19T00:04:58;31.33;30.02;36.49;;
67298;Laerm;65443;51.436;5.978;2023-06-19T00:05:09;31.36;29.92;32.80;;
67298;Laerm;65443;51.436;5.978;2023-06-19T00:05:20;31.28;30.19;32.83;;
67298;Laerm;65443;51.436;5.978;2023-06-19T00:05:33;31.04;29.93;32.19;;
67298;Laerm;65443;51.436;5.978;2023-06-19T00:05:43;30.99;29.66;32.29;;
67298;Laerm;65443;51.436;5.978;2023-06-19T00:05:53;33.75;30.02;43.76;;
67298;Laerm;65443;51.436;5.978;2023-06-19T00:06:05;31.29;30.24;32.57;;
67298;Laerm;65443;51.436;5.978;2023-06-19T00:06:15;32.04;30.14;35.62;;
67298;Laerm;65443;51.436;5.978;2023-06-19T00:06:25;33.34;30.19;42.58;;
67298;Laerm;65443;51.436;5.978;2023-06-19T00:06:36;33.38;30.36;42.64;;
67298;Laerm;65443;51.436;5.978;2023-06-19T00:06:46;33.02;30.68;40.22;;
67298;Laerm;65443;51.436;5.978;2023-06-19T00:06:59;34.05;31.12;41.73;;
67298;Laerm;65443;51.436;5.978;2023-06-19T00:07:10;38.69;33.91;45.19;;
67298;Laerm;65443;51.436;5.978;2023-06-19T00:07:20;55.12;38.36;62.14;;
67298;Laerm;65443;51.436;5.978;2023-06-19T00:07:32;37.30;33.06;45.04;;
67298;Laerm;65443;51.436;5.978;2023-06-19T00:07:42;33.72;30.85;38.57;;
67298;Laerm;65443;51.436;5.978;2023-06-19T00:07:52;33.63;30.18;41.13;;
67298;Laerm;65443;51.436;5.978;2023-06-19T00:08:03;34.21;30.24;45.08;;
67298;Laerm;65443;51.436;5.978;2023-06-19T00:08:15;32.79;30.35;41.65;;
67298;Laerm;65443;51.436;5.978;2023-06-19T00:08:25;33.62;30.55;40.54;;
67298;Laerm;65443;51.436;5.978;2023-06-19T00:08:36;33.65;30.07;44.31;;
67298;Laerm;65443;51.436;5.978;2023-06-19T00:08:46;37.16;30.22;51.86;;
67298;Laerm;65443;51.436;5.978;2023-06-19T00:08:56;33.35;30.33;42.93;;
67298;Laerm;65443;51.436;5.978;2023-06-19T00:09:07;31.82;30.07;36.96;;
67298;Laerm;65443;51.436;5.978;2023-06-19T00:09:17;30.98;29.59;32.14;;
67298;Laerm;65443;51.436;5.978;2023-06-19T00:09:27;37.30;29.76;45.77;;
67298;Laerm;65443;51.436;5.978;2023-06-19T00:09:38;33.65;30.02;42.09;;
67298;Laerm;65443;51.436;5.978;2023-06-19T00:09:48;31.14;29.86;32.87;;
67298;Laerm;65443;51.436;5.978;2023-06-19T00:09:58;31.77;30.11;37.15;;
67298;Laerm;65443;51.436;5.978;2023-06-19T00:10:08;31.66;30.09;34.09;;
67298;Laerm;65443;51.436;5.978;2023-06-19T00:10:19;31.63;30.14;37.54;;
67298;Laerm;65443;51.436;5.978;2023-06-19T00:10:29;31.35;30.32;32.83;;
67298;Laerm;65443;51.436;5.978;2023-06-19T00:10:40;31.26;29.94;32.60;;
67298;Laerm;65443;51.436;5.978;2023-06-19T00:10:50;31.29;30.06;33.05;;
67298;Laerm;65443;51.436;5.978;2023-06-19T00:11:00;32.02;30.18;39.06;;
67298;Laerm;65443;51.436;5.978;2023-06-19T00:11:11;31.14;29.86;32.81;;
67298;Laerm;65443;51.436;5.978;2023-06-19T00:11:21;31.35;29.74;33.49;;
67298;Laerm;65443;51.436;5.978;2023-06-19T00:11:31;31.43;30.04;33.82;;
67298;Laerm;65443;51.436;5.978;2023-06-19T00:11:42;31.46;29.86;36.07;;
67298;Laerm;65443;51.436;5.978;2023-06-19T00:11:52;38.37;30.92;51.67;;
67298;Laerm;65443;51.436;5.978;2023-06-19T00:12:02;34.54;30.60;49.81;;
67298;Laerm;65443;51.436;5.978;2023-06-19T00:12:14;35.22;30.25;47.03;;
67298;Laerm;65443;51.436;5.978;2023-06-19T00:12:24;35.83;29.99;48.91;;
67298;Laerm;65443;51.436;5.978;2023-06-19T00:12:35;34.27;30.52;45.34;;
67298;Laerm;65443;51.436;5.978;2023-06-19T00:12:46;34.26;30.44;44.39;;
67298;Laerm;65443;51.436;5.978;2023-06-19T00:12:56;33.37;30.24;43.64;;
67298;Laerm;65443;51.436;5.978;2023-06-19T00:13:07;32.46;29.38;41.12;;
67298;Laerm;65443;51.436;5.978;2023-06-19T00:13:17;35.06;30.62;45.62;;
67298;Laerm;65443;51.436;5.978;2023-06-19T00:13:28;34.09;29.82;42.69;;
67298;Laerm;65443;51.436;5.978;2023-06-19T00:13:39;32.17;30.25;38.40;;
67298;Laerm;65443;51.436;5.978;2023-06-19T00:13:50;33.87;30.36;43.77;;
67298;Laerm;65443;51.436;5.978;2023-06-19T00:14:00;32.31;30.31;37.36;;
67298;Laerm;65443;51.436;5.978;2023-06-19T00:14:11;31.97;30.00;36.01;;
67298;Laerm;65443;51.436;5.978;2023-06-19T00:14:21;32.52;30.36;38.64;;
67298;Laerm;65443;51.436;5.978;2023-06-19T00:14:31;32.26;30.14;37.94;;
67298;Laerm;65443;51.436;5.978;2023-06-19T00:14:42;32.56;30.44;43.19;;
67298;Laerm;65443;51.436;5.978;2023-06-19T00:14:53;32.60;30.30;45.04;;
67298;Laerm;65443;51.436;5.978;2023-06-19T00:15:03;33.50;30.09;41.22;;
67298;Laerm;65443;51.436;5.978;2023-06-19T00:15:14;32.04;30.03;43.30;;
67298;Laerm;65443;51.436;5.978;2023-06-19T00:15:24;33.30;30.08;41.94;;
67298;Laerm;65443;51.436;5.978;2023-06-19T00:15:35;32.27;30.13;38.80;;
67298;Laerm;65443;51.436;5.978;2023-06-19T00:15:45;33.93;31.23;39.23;;
67298;Laerm;65443;51.436;5.978;2023-06-19T00:15:55;43.48;33.71;51.48;;
67298;Laerm;65443;51.436;5.978;2023-06-19T00:16:10;42.97;33.44;50.79;;
67298;Laerm;65443;51.436;5.978;2023-06-19T00:16:20;32.63;30.54;34.88;;
67298;Laerm;65443;51.436;5.978;2023-06-19T00:16:31;31.63;30.27;33.03;;
67298;Laerm;65443;51.436;5.978;2023-06-19T00:16:41;31.72;30.26;33.51;;
67298;Laerm;65443;51.436;5.978;2023-06-19T00:16:51;32.71;30.85;35.08;;
67298;Laerm;65443;51.436;5.978;2023-06-19T00:17:02;40.62;32.60;49.07;;
67298;Laerm;65443;51.436;5.978;2023-06-19T00:17:12;52.24;42.55;60.24;;
67298;Laerm;65443;51.436;5.978;2023-06-19T00:17:27;57.91;48.47;64.99;;
67298;Laerm;65443;51.436;5.978;2023-06-19T00:17:38;48.11;44.91;62.18;;
67298;Laerm;65443;51.436;5.978;2023-06-19T00:17:48;60.57;44.91;67.87;;
67298;Laerm;65443;51.436;5.978;2023-06-19T00:17:58;63.78;57.83;69.13;;
67298;Laerm;65443;51.436;5.978;2023-06-19T00:18:09;62.08;53.56;66.26;;
67298;Laerm;65443;51.436;5.978;2023-06-19T00:18:20;62.95;57.87;66.28;;
67298;Laerm;65443;51.436;5.978;2023-06-19T00:18:31;54.45;38.38;64.82;;
67298;Laerm;65443;51.436;5.978;2023-06-19T00:18:49;36.65;33.14;46.24;;
67298;Laerm;65443;51.436;5.978;2023-06-19T00:18:59;38.44;33.04;46.16;;
67298;Laerm;65443;51.436;5.978;2023-06-19T00:19:10;42.80;37.87;46.88;;
67298;Laerm;65443;51.436;5.978;2023-06-19T00:19:22;38.27;33.44;43.58;;
67298;Laerm;65443;51.436;5.978;2023-06-19T00:19:32;32.63;30.10;36.21;;
67298;Laerm;65443;51.436;5.978;2023-06-19T00:19:46;30.97;29.35;33.31;;
67298;Laerm;65443;51.436;5.978;2023-06-19T00:19:58;29.73;28.52;31.13;;
67298;Laerm;65443;51.436;5.978;2023-06-19T00:20:09;29.80;28.43;31.64;;
67298;Laerm;65443;51.436;5.978;2023-06-19T00:20:19;29.52;28.23;30.69;;
67298;Laerm;65443;51.436;5.978;2023-06-19T00:20:29;29.56;28.53;30.99;;
67298;Laerm;65443;51.436;5.978;2023-06-19T00:20:40;29.94;28.86;33.40;;
67298;Laerm;65443;51.436;5.978;2023-06-19T00:20:50;29.62;28.62;30.91;;
67298;Laerm;65443;51.436;5.978;2023-06-19T00:21:00;29.63;28.47;31.18;;
67298;Laerm;65443;51.436;5.978;2023-06-19T00:21:11;30.28;28.71;40.61;;
67298;Laerm;65443;51.436;5.978;2023-06-19T00:21:22;30.15;28.85;33.88;;
67298;Laerm;65443;51.436;5.978;2023-06-19T00:21:34;29.87;28.70;31.48;;
67298;Laerm;65443;51.436;5.978;2023-06-19T00:21:44;29.89;28.83;31.36;;
67298;Laerm;65443;51.436;5.978;2023-06-19T00:21:56;29.91;28.73;31.19;;
67298;Laerm;65443;51.436;5.978;2023-06-19T00:22:07;30.13;29.04;31.18;;
67298;Laerm;65443;51.436;5.978;2023-06-19T00:22:17;29.85;28.57;31.42;;
67298;Laerm;65443;51.436;5.978;2023-06-19T00:22:28;30.03;28.71;31.64;;
67298;Laerm;65443;51.436;5.978;2023-06-19T00:22:38;30.15;28.70;31.42;;
67298;Laerm;65443;51.436;5.978;2023-06-19T00:22:48;29.80;28.41;30.91;;
67298;Laerm;65443;51.436;5.978;2023-06-19T00:23:01;29.77;28.61;31.63;;
67298;Laerm;65443;51.436;5.978;2023-06-19T00:23:12;29.50;28.52;31.42;;
67298;Laerm;65443;51.436;5.978;2023-06-19T00:23:24;29.59;28.69;30.93;;
67298;Laerm;65443;51.436;5.978;2023-06-19T00:23:34;29.57;28.29;30.71;;
67298;Laerm;65443;51.436;5.978;2023-06-19T00:23:45;29.73;28.67;31.12;;
67298;Laerm;65443;51.436;5.978;2023-06-19T00:23:55;29.84;28.47;31.87;;
67298;Laerm;65443;51.436;5.978;2023-06-19T00:24:06;29.81;28.73;32.73;;
67298;Laerm;65443;51.436;5.978;2023-06-19T00:24:16;29.92;28.48;34.28;;
67298;Laerm;65443;51.436;5.978;2023-06-19T00:24:26;29.79;28.43;31.26;;
67298;Laerm;65443;51.436;5.978;2023-06-19T00:24:37;29.82;28.59;31.03;;
67298;Laerm;65443;51.436;5.978;2023-06-19T00:24:47;29.86;28.74;30.81;;
67298;Laerm;65443;51.436;5.978;2023-06-19T00:24:57;29.56;28.19;30.86;;
67298;Laerm;65443;51.436;5.978;2023-06-19T00:25:08;29.96;28.86;30.85;;
67298;Laerm;65443;51.436;5.978;2023-06-19T00:25:18;29.82;28.66;31.45;;
67298;Laerm;65443;51.436;5.978;2023-06-19T00:25:29;30.92;28.60;39.30;;
67298;Laerm;65443;51.436;5.978;2023-06-19T00:25:40;30.33;29.20;33.64;;
67298;Laerm;65443;51.436;5.978;2023-06-19T00:25:50;29.98;28.79;31.68;;
67298;Laerm;65443;51.436;5.978;2023-06-19T00:26:00;29.86;28.80;31.13;;
67298;Laerm;65443;51.436;5.978;2023-06-19T00:26:11;29.68;28.51;31.00;;
67298;Laerm;65443;51.436;5.978;2023-06-19T00:26:24;29.62;28.55;30.82;;
67298;Laerm;65443;51.436;5.978;2023-06-19T00:26:35;29.71;28.57;30.69;;
67298;Laerm;65443;51.436;5.978;2023-06-19T00:26:45;29.77;28.56;31.61;;
67298;Laerm;65443;51.436;5.978;2023-06-19T00:26:56;29.68;28.47;32.26;;
67298;Laerm;65443;51.436;5.978;2023-06-19T00:27:06;29.87;28.81;31.00;;
67298;Laerm;65443;51.436;5.978;2023-06-19T00:27:16;30.22;28.77;36.29;;
67298;Laerm;65443;51.436;5.978;2023-06-19T00:27:27;30.03;28.86;31.55;;
67298;Laerm;65443;51.436;5.978;2023-06-19T00:27:37;30.09;29.02;31.68;;
67298;Laerm;65443;51.436;5.978;2023-06-19T00:27:47;29.85;28.71;31.85;;
67298;Laerm;65443;51.436;5.978;2023-06-19T00:27:58;30.11;28.74;31.90;;
67298;Laerm;65443;51.436;5.978;2023-06-19T00:28:08;29.98;28.72;31.58;;
67298;Laerm;65443;51.436;5.978;2023-06-19T00:28:21;29.98;28.65;31.31;;
67298;Laerm;65443;51.436;5.978;2023-06-19T00:28:31;29.79;28.60;32.78;;
67298;Laerm;65443;51.436;5.978;2023-06-19T00:28:42;30.13;28.44;34.24;;
67298;Laerm;65443;51.436;5.978;2023-06-19T00:28:55;30.93;28.88;35.63;;
67298;Laerm;65443;51.436;5.978;2023-06-19T00:29:05;31.55;29.21;36.56;;
67298;Laerm;65443;51.436;5.978;2023-06-19T00:29:16;32.03;29.61;37.31;;
67298;Laerm;65443;51.436;5.978;2023-06-19T00:29:27;31.85;29.41;36.83;;
67298;Laerm;65443;51.436;5.978;2023-06-19T00:29:38;31.78;29.00;36.67;;
67298;Laerm;65443;51.436;5.978;2023-06-19T00:29:48;30.32;29.16;31.46;;
67298;Laerm;65443;51.436;5.978;2023-06-19T00:29:58;30.49;29.16;33.47;;
67298;Laerm;65443;51.436;5.978;2023-06-19T00:30:12;30.06;28.94;32.28;;
67298;Laerm;65443;51.436;5.978;2023-06-19T00:30:22;29.85;28.70;31.00;;
67298;Laerm;65443;51.436;5.978;2023-06-19T00:30:33;29.81;28.73;31.33;;
67298;Laerm;65443;51.436;5.978;2023-06-19T00:30:43;30.12;29.16;31.48;;
67298;Laerm;65443;51.436;5.978;2023-06-19T00:30:54;30.06;28.94;33.51;;
67298;Laerm;65443;51.436;5.978;2023-06-19T00:31:05;56.58;28.91;72.02;;
67298;Laerm;65443;51.436;5.978;2023-06-19T00:31:17;31.40;29.01;40.06;;
67298;Laerm;65443;51.436;5.978;2023-06-19T00:31:29;29.96;28.90;33.00;;
67298;Laerm;65443;51.436;5.978;2023-06-19T00:31:39;29.87;28.45;31.37;;
67298;Laerm;65443;51.436;5.978;2023-06-19T00:31:49;29.87;28.73;30.85;;
67298;Laerm;65443;51.436;5.978;2023-06-19T00:32:00;29.69;28.66;30.86;;
67298;Laerm;65443;51.436;5.978;2023-06-19T00:32:10;29.73;28.45;31.88;;
67298;Laerm;65443;51.436;5.978;2023-06-19T00:32:21;29.86;28.71;30.87;;
67298;Laerm;65443;51.436;5.978;2023-06-19T00:32:31;29.94;28.92;31.16;;
67298;Laerm;65443;51.436;5.978;2023-06-19T00:32:41;29.90;28.69;31.08;;
67298;Laerm;65443;51.436;5.978;2023-06-19T00:32:59;29.83;28.57;30.94;;
67298;Laerm;65443;51.436;5.978;2023-06-19T00:33:13;29.64;28.34;31.43;;
67298;Laerm;65443;51.436;5.978;2023-06-19T00:33:23;29.68;28.44;30.93;;
67298;Laerm;65443;51.436;5.978;2023-06-19T00:33:34;29.84;28.60;31.04;;
67298;Laerm;65443;51.436;5.978;2023-06-19T00:33:44;29.79;28.72;30.99;;
67298;Laerm;65443;51.436;5.978;2023-06-19T00:33:55;29.80;28.65;30.75;;
67298;Laerm;65443;51.436;5.978;2023-06-19T00:34:06;29.84;28.89;30.86;;
67298;Laerm;65443;51.436;5.978;2023-06-19T00:34:16;29.68;28.53;30.62;;
67298;Laerm;65443;51.436;5.978;2023-06-19T00:34:28;29.68;28.69;30.63;;
67298;Laerm;65443;51.436;5.978;2023-06-19T00:34:38;29.71;28.57;30.60;;
67298;Laerm;65443;51.436;5.978;2023-06-19T00:34:49;29.75;28.48;33.29;;
67298;Laerm;65443;51.436;5.978;2023-06-19T00:34:59;29.72;28.78;31.32;;
67298;Laerm;65443;51.436;5.978;2023-06-19T00:35:10;29.73;28.53;30.68;;
67298;Laerm;65443;51.436;5.978;2023-06-19T00:35:21;29.64;28.74;31.85;;
67298;Laerm;65443;51.436;5.978;2023-06-19T00:35:32;29.94;28.77;31.32;;
67298;Laerm;65443;51.436;5.978;2023-06-19T00:35:42;29.94;28.94;31.73;;
67298;Laerm;65443;51.436;5.978;2023-06-19T00:35:53;30.21;29.07;31.33;;
67298;Laerm;65443;51.436;5.978;2023-06-19T00:36:11;29.93;28.72;30.93;;
67298;Laerm;65443;51.436;5.978;2023-06-19T00:36:22;29.85;28.61;36.51;;
67298;Laerm;65443;51.436;5.978;2023-06-19T00:36:35;32.16;28.64;44.07;;
67298;Laerm;65443;51.436;5.978;2023-06-19T00:36:50;30.28;28.99;32.41;;
67298;Laerm;65443;51.436;5.978;2023-06-19T00:37:01;30.61;29.03;32.16;;
67298;Laerm;65443;51.436;5.978;2023-06-19T00:37:11;32.65;29.65;43.03;;
67298;Laerm;65443;51.436;5.978;2023-06-19T00:37:23;33.99;31.15;41.62;;
67298;Laerm;65443;51.436;5.978;2023-06-19T00:37:33;60.66;35.55;74.01;;
67298;Laerm;65443;51.436;5.978;2023-06-19T00:37:44;47.54;41.06;56.90;;
67298;Laerm;65443;51.436;5.978;2023-06-19T00:37:57;38.56;29.71;46.54;;
67298;Laerm;65443;51.436;5.978;2023-06-19T00:38:10;30.46;28.83;44.50;;
67298;Laerm;65443;51.436;5.978;2023-06-19T00:38:22;29.86;28.70;30.90;;
67298;Laerm;65443;51.436;5.978;2023-06-19T00:38:33;29.83;28.73;31.41;;
67298;Laerm;65443;51.436;5.978;2023-06-19T00:38:44;29.78;28.61;31.89;;
67298;Laerm;65443;51.436;5.978;2023-06-19T00:38:54;29.85;28.58;33.22;;
67298;Laerm;65443;51.436;5.978;2023-06-19T00:39:05;29.73;28.77;31.11;;
67298;Laerm;65443;51.436;5.978;2023-06-19T00:39:15;29.63;28.54;30.62;;
67298;Laerm;65443;51.436;5.978;2023-06-19T00:39:25;29.69;28.53;30.72;;
67298;Laerm;65443;51.436;5.978;2023-06-19T00:39:36;29.64;28.40;30.65;;
67298;Laerm;65443;51.436;5.978;2023-06-19T00:39:46;29.92;28.85;31.90;;
67298;Laerm;65443;51.436;5.978;2023-06-19T00:39:57;30.00;28.59;30.92;;
67298;Laerm;65443;51.436;5.978;2023-06-19T00:40:07;29.62;28.54;30.70;;
67298;Laerm;65443;51.436;5.978;2023-06-19T00:40:27;29.83;28.46;32.52;;
67298;Laerm;65443;51.436;5.978;2023-06-19T00:40:38;29.83;28.33;31.29;;
67298;Laerm;65443;51.436;5.978;2023-06-19T00:40:48;29.99;28.74;31.15;;
67298;Laerm;65443;51.436;5.978;2023-06-19T00:40:59;30.06;28.62;32.59;;
67298;Laerm;65443;51.436;5.978;2023-06-19T00:41:09;31.35;29.32;35.84;;
67298;Laerm;65443;51.436;5.978;2023-06-19T00:41:19;32.57;29.61;39.63;;
67298;Laerm;65443;51.436;5.978;2023-06-19T00:41:30;32.84;29.94;36.48;;
67298;Laerm;65443;51.436;5.978;2023-06-19T00:41:41;31.70;29.75;34.82;;
67298;Laerm;65443;51.436;5.978;2023-06-19T00:41:52;31.32;29.38;35.26;;
67298;Laerm;65443;51.436;5.978;2023-06-19T00:42:03;30.84;29.44;32.82;;
67298;Laerm;65443;51.436;5.978;2023-06-19T00:42:13;30.45;28.84;33.96;;
67298;Laerm;65443;51.436;5.978;2023-06-19T00:42:23;30.51;29.09;35.05;;
67298;Laerm;65443;51.436;5.978;2023-06-19T00:42:34;30.51;28.91;32.30;;
67298;Laerm;65443;51.436;5.978;2023-06-19T00:42:44;30.32;28.95;32.32;;
67298;Laerm;65443;51.436;5.978;2023-06-19T00:42:54;29.92;28.78;31.24;;
67298;Laerm;65443;51.436;5.978;2023-06-19T00:43:05;29.88;28.65;31.13;;
67298;Laerm;65443;51.436;5.978;2023-06-19T00:43:16;30.06;29.06;31.10;;
67298;Laerm;65443;51.436;5.978;2023-06-19T00:43:26;30.30;29.31;31.62;;
67298;Laerm;65443;51.436;5.978;2023-06-19T00:43:36;30.53;29.12;31.67;;
67298;Laerm;65443;51.436;5.978;2023-06-19T00:43:47;33.08;30.39;38.45;;
67298;Laerm;65443;51.436;5.978;2023-06-19T00:43:57;49.49;37.90;56.41;;
67298;Laerm;65443;51.436;5.978;2023-06-19T00:44:07;48.41;34.55;53.90;;
67298;Laerm;65443;51.436;5.978;2023-06-19T00:44:18;34.58;32.08;37.71;;
67298;Laerm;65443;51.436;5.978;2023-06-19T00:44:28;31.76;29.46;34.99;;
67298;Laerm;65443;51.436;5.978;2023-06-19T00:44:39;30.07;28.97;31.39;;
67298;Laerm;65443;51.436;5.978;2023-06-19T00:44:50;29.68;28.67;30.81;;
67298;Laerm;65443;51.436;5.978;2023-06-19T00:45:00;29.60;28.27;30.60;;
67298;Laerm;65443;51.436;5.978;2023-06-19T00:45:10;29.71;28.50;30.55;;
67298;Laerm;65443;51.436;5.978;2023-06-19T00:45:21;29.52;28.43;30.63;;
67298;Laerm;65443;51.436;5.978;2023-06-19T00:45:31;29.63;28.73;31.60;;
67298;Laerm;65443;51.436;5.978;2023-06-19T00:45:41;29.87;28.77;31.10;;
67298;Laerm;65443;51.436;5.978;2023-06-19T00:45:52;29.78;28.86;35.04;;
67298;Laerm;65443;51.436;5.978;2023-06-19T00:46:02;29.83;28.71;31.67;;
67298;Laerm;65443;51.436;5.978;2023-06-19T00:46:13;29.63;28.33;31.09;;
67298;Laerm;65443;51.436;5.978;2023-06-19T00:46:23;29.69;28.70;31.48;;
67298;Laerm;65443;51.436;5.978;2023-06-19T00:46:35;29.61;28.45;30.74;;
67298;Laerm;65443;51.436;5.978;2023-06-19T00:46:48;29.80;28.74;37.04;;
67298;Laerm;65443;51.436;5.978;2023-06-19T00:47:01;30.28;28.61;45.61;;
67298;Laerm;65443;51.436;5.978;2023-06-19T00:47:12;29.81;28.45;31.25;;
67298;Laerm;65443;51.436;5.978;2023-06-19T00:47:22;30.05;29.10;31.55;;
67298;Laerm;65443;51.436;5.978;2023-06-19T00:47:33;29.98;28.81;31.37;;
67298;Laerm;65443;51.436;5.978;2023-06-19T00:47:44;29.73;28.21;31.40;;
67298;Laerm;65443;51.436;5.978;2023-06-19T00:47:55;29.80;28.78;30.90;;
67298;Laerm;65443;51.436;5.978;2023-06-19T00:48:06;29.87;28.85;31.21;;
67298;Laerm;65443;51.436;5.978;2023-06-19T00:48:16;29.82;28.67;31.52;;
67298;Laerm;65443;51.436;5.978;2023-06-19T00:48:27;29.89;28.80;32.50;;
67298;Laerm;65443;51.436;5.978;2023-06-19T00:48:38;29.87;28.83;31.11;;
67298;Laerm;65443;51.436;5.978;2023-06-19T00:48:49;29.86;28.88;32.32;;
67298;Laerm;65443;51.436;5.978;2023-06-19T00:48:59;29.89;28.69;31.04;;
67298;Laerm;65443;51.436;5.978;2023-06-19T00:49:10;30.13;28.64;33.94;;
67298;Laerm;65443;51.436;5.978;2023-06-19T00:49:21;29.99;29.10;31.49;;
67298;Laerm;65443;51.436;5.978;2023-06-19T00:49:31;29.93;28.74;31.70;;
67298;Laerm;65443;51.436;5.978;2023-06-19T00:49:42;29.79;28.28;30.80;;
67298;Laerm;65443;51.436;5.978;2023-06-19T00:49:52;30.13;28.72;32.46;;
67298;Laerm;65443;51.436;5.978;2023-06-19T00:50:03;29.99;28.73;33.29;;
67298;Laerm;65443;51.436;5.978;2023-06-19T00:50:13;30.15;29.13;32.70;;
67298;Laerm;65443;51.436;5.978;2023-06-19T00:50:24;29.69;28.51;30.64;;
67298;Laerm;65443;51.436;5.978;2023-06-19T00:50:34;29.66;28.51;30.73;;
67298;Laerm;65443;51.436;5.978;2023-06-19T00:50:47;29.84;28.65;30.89;;
67298;Laerm;65443;51.436;5.978;2023-06-19T00:50:59;29.90;28.88;31.15;;
67298;Laerm;65443;51.436;5.978;2023-06-19T00:51:09;30.16;28.68;33.11;;
67298;Laerm;65443;51.436;5.978;2023-06-19T00:51:19;30.67;29.39;31.98;;
67298;Laerm;65443;51.436;5.978;2023-06-19T00:51:30;30.35;28.88;31.85;;
67298;Laerm;65443;51.436;5.978;2023-06-19T00:51:40;30.29;29.15;33.71;;
67298;Laerm;65443;51.436;5.978;2023-06-19T00:51:51;30.57;29.46;31.80;;
67298;Laerm;65443;51.436;5.978;2023-06-19T00:52:01;29.90;28.76;31.21;;
67298;Laerm;65443;51.436;5.978;2023-06-19T00:52:12;29.85;28.40;32.59;;
67298;Laerm;65443;51.436;5.978;2023-06-19T00:52:22;29.89;28.81;31.53;;
67298;Laerm;65443;51.436;5.978;2023-06-19T00:52:33;29.98;28.72;30.99;;
67298;Laerm;65443;51.436;5.978;2023-06-19T00:52:43;30.00;28.81;31.27;;
67298;Laerm;65443;51.436;5.978;2023-06-19T00:52:54;29.91;28.89;31.01;;
67298;Laerm;65443;51.436;5.978;2023-06-19T00:53:04;29.93;29.04;30.81;;
67298;Laerm;65443;51.436;5.978;2023-06-19T00:53:17;30.03;29.09;31.52;;
67298;Laerm;65443;51.436;5.978;2023-06-19T00:53:29;30.27;28.75;32.64;;
67298;Laerm;65443;51.436;5.978;2023-06-19T00:53:40;30.07;28.43;32.12;;
67298;Laerm;65443;51.436;5.978;2023-06-19T00:53:51;30.34;28.97;34.19;;
67298;Laerm;65443;51.436;5.978;2023-06-19T00:54:02;30.38;29.19;33.20;;
67298;Laerm;65443;51.436;5.978;2023-06-19T00:54:12;30.20;29.02;32.20;;
67298;Laerm;65443;51.436;5.978;2023-06-19T00:54:23;30.02;28.88;31.28;;
67298;Laerm;65443;51.436;5.978;2023-06-19T00:54:33;29.82;28.96;30.93;;
67298;Laerm;65443;51.436;5.978;2023-06-19T00:54:44;30.39;29.05;42.16;;
67298;Laerm;65443;51.436;5.978;2023-06-19T00:54:54;30.04;28.69;31.45;;
67298;Laerm;65443;51.436;5.978;2023-06-19T00:55:05;30.39;28.95;31.52;;
67298;Laerm;65443;51.436;5.978;2023-06-19T00:55:18;30.08;28.93;31.74;;
67298;Laerm;65443;51.436;5.978;2023-06-19T00:55:29;30.23;29.02;32.38;;
67298;Laerm;65443;51.436;5.978;2023-06-19T00:55:42;30.52;29.03;34.62;;
67298;Laerm;65443;51.436;5.978;2023-06-19T00:55:54;30.45;28.93;32.83;;
67298;Laerm;65443;51.436;5.978;2023-06-19T00:56:06;30.26;29.08;33.39;;
67298;Laerm;65443;51.436;5.978;2023-06-19T00:56:16;30.21;28.97;31.33;;
67298;Laerm;65443;51.436;5.978;2023-06-19T00:56:28;31.69;29.48;38.03;;
67298;Laerm;65443;51.436;5.978;2023-06-19T00:56:39;34.25;29.48;44.83;;
67298;Laerm;65443;51.436;5.978;2023-06-19T00:56:51;31.60;29.38;43.01;;
67298;Laerm;65443;51.436;5.978;2023-06-19T00:57:01;31.40;29.05;41.93;;
67298;Laerm;65443;51.436;5.978;2023-06-19T00:57:12;30.36;29.31;31.76;;
67298;Laerm;65443;51.436;5.978;2023-06-19T00:57:23;30.15;29.04;34.74;;
67298;Laerm;65443;51.436;5.978;2023-06-19T00:57:33;30.65;29.15;34.22;;
67298;Laerm;65443;51.436;5.978;2023-06-19T00:57:43;30.75;29.29;33.03;;
67298;Laerm;65443;51.436;5.978;2023-06-19T00:57:55;30.90;29.55;32.80;;
67298;Laerm;65443;51.436;5.978;2023-06-19T00:58:05;30.69;28.95;32.17;;
67298;Laerm;65443;51.436;5.978;2023-06-19T00:58:16;30.32;29.06;31.65;;
67298;Laerm;65443;51.436;5.978;2023-06-19T00:58:26;30.36;29.17;31.76;;
67298;Laerm;65443;51.436;5.978;2023-06-19T00:58:37;30.31;29.05;31.40;;
67298;Laerm;65443;51.436;5.978;2023-06-19T00:58:47;30.43;29.14;32.45;;
67298;Laerm;65443;51.436;5.978;2023-06-19T00:58:57;30.80;29.52;31.98;;
67298;Laerm;65443;51.436;5.978;2023-06-19T00:59:14;30.61;29.53;32.24;;
67298;Laerm;65443;51.436;5.978;2023-06-19T00:59:25;30.70;29.30;40.01;;
67298;Laerm;65443;51.436;5.978;2023-06-19T00:59:36;30.44;29.07;35.25;;
67298;Laerm;65443;51.436;5.978;2023-06-19T00:59:46;30.23;29.18;34.85;;
67298;Laerm;65443;51.436;5.978;2023-06-19T00:59:57;30.37;29.24;32.85;;
67298;Laerm;65443;51.436;5.978;2023-06-19T01:00:08;59.32;29.24;74.15;;
67298;Laerm;65443;51.436;5.978;2023-06-19T01:00:18;53.11;29.34;70.50;;
67298;Laerm;65443;51.436;5.978;2023-06-19T01:00:28;30.30;29.32;31.66;;
67298;Laerm;65443;51.436;5.978;2023-06-19T01:00:39;30.80;29.38;34.64;;
67298;Laerm;65443;51.436;5.978;2023-06-19T01:00:49;30.21;29.08;31.43;;